sensor_id;sensor_type;location;lat;lon;timestamp;P1;durP1;ratioP1;P2;durP2;ratioP2
54269;SDS011;40181;51.560;13.000;2023-12-07T00:00:09;8.90;;;5.97;;
54269;SDS011;40181;51.560;13.000;2023-12-07T00:02:39;8.07;;;6.10;;
54269;SDS011;40181;51.560;13.000;2023-12-07T00:05:08;12.45;;;8.57;;
54269;SDS011;40181;51.560;13.000;2023-12-07T00:07:38;8.20;;;7.28;;
54269;SDS011;40181;51.560;13.000;2023-12-07T00:10:07;8.68;;;7.72;;
54269;SDS011;40181;51.560;13.000;2023-12-07T00:12:40;8.63;;;7.47;;
54269;SDS011;40181;51.560;13.000;2023-12-07T00:15:09;7.88;;;7.07;;
54269;SDS011;40181;51.560;13.000;2023-12-07T00:17:38;10.93;;;8.05;;
54269;SDS011;40181;51.560;13.000;2023-12-07T00:20:08;10.93;;;8.23;;
54269;SDS011;40181;51.560;13.000;2023-12-07T00:22:38;8.88;;;7.80;;
54269;SDS011;40181;51.560;13.000;2023-12-07T00:25:07;8.77;;;7.55;;
54269;SDS011;40181;51.560;13.000;2023-12-07T00:27:36;9.63;;;7.40;;
54269;SDS011;40181;51.560;13.000;2023-12-07T00:30:08;9.25;;;7.50;;
54269;SDS011;40181;51.560;13.000;2023-12-07T00:32:39;11.18;;;9.07;;
54269;SDS011;40181;51.560;13.000;2023-12-07T00:35:09;7.55;;;6.85;;
54269;SDS011;40181;51.560;13.000;2023-12-07T00:37:39;8.75;;;7.85;;
54269;SDS011;40181;51.560;13.000;2023-12-07T00:40:08;7.80;;;6.93;;
54269;SDS011;40181;51.560;13.000;2023-12-07T00:42:40;8.15;;;6.38;;
54269;SDS011;40181;51.560;13.000;2023-12-07T00:45:11;6.65;;;5.53;;
54269;SDS011;40181;51.560;13.000;2023-12-07T00:47:40;7.53;;;5.88;;
54269;SDS011;40181;51.560;13.000;2023-12-07T00:50:11;7.80;;;6.63;;
54269;SDS011;40181;51.560;13.000;2023-12-07T00:52:41;7.53;;;6.82;;
54269;SDS011;40181;51.560;13.000;2023-12-07T00:55:11;10.25;;;8.68;;
54269;SDS011;40181;51.560;13.000;2023-12-07T00:57:42;10.23;;;7.95;;
54269;SDS011;40181;51.560;13.000;2023-12-07T01:00:12;7.38;;;6.65;;
54269;SDS011;40181;51.560;13.000;2023-12-07T01:02:42;10.48;;;8.23;;
54269;SDS011;40181;51.560;13.000;2023-12-07T01:05:11;8.68;;;7.78;;
54269;SDS011;40181;51.560;13.000;2023-12-07T01:07:40;7.50;;;6.80;;
54269;SDS011;40181;51.560;13.000;2023-12-07T01:10:09;8.07;;;6.85;;
54269;SDS011;40181;51.560;13.000;2023-12-07T01:12:39;8.35;;;7.50;;
54269;SDS011;40181;51.560;13.000;2023-12-07T01:15:10;8.13;;;7.32;;
54269;SDS011;40181;51.560;13.000;2023-12-07T01:17:39;7.93;;;7.00;;
54269;SDS011;40181;51.560;13.000;2023-12-07T01:20:09;8.18;;;7.38;;
54269;SDS011;40181;51.560;13.000;2023-12-07T01:25:10;7.93;;;7.10;;
54269;SDS011;40181;51.560;13.000;2023-12-07T01:27:47;7.40;;;6.50;;
54269;SDS011;40181;51.560;13.000;2023-12-07T01:30:16;9.73;;;7.75;;
54269;SDS011;40181;51.560;13.000;2023-12-07T01:32:45;10.00;;;9.00;;
54269;SDS011;40181;51.560;13.000;2023-12-07T01:35:15;9.48;;;8.48;;
54269;SDS011;40181;51.560;13.000;2023-12-07T01:37:44;7.68;;;6.60;;
54269;SDS011;40181;51.560;13.000;2023-12-07T01:40:13;9.45;;;8.55;;
54269;SDS011;40181;51.560;13.000;2023-12-07T01:42:51;9.50;;;8.50;;
54269;SDS011;40181;51.560;13.000;2023-12-07T01:45:21;10.20;;;8.98;;
54269;SDS011;40181;51.560;13.000;2023-12-07T01:47:51;8.75;;;7.82;;
54269;SDS011;40181;51.560;13.000;2023-12-07T01:50:23;7.78;;;6.72;;
54269;SDS011;40181;51.560;13.000;2023-12-07T01:52:54;8.10;;;7.30;;
54269;SDS011;40181;51.560;13.000;2023-12-07T01:55:27;9.80;;;7.55;;
54269;SDS011;40181;51.560;13.000;2023-12-07T01:58:02;8.27;;;7.47;;
54269;SDS011;40181;51.560;13.000;2023-12-07T02:00:32;10.35;;;8.05;;
54269;SDS011;40181;51.560;13.000;2023-12-07T02:05:32;12.43;;;11.13;;
54269;SDS011;40181;51.560;13.000;2023-12-07T02:08:03;11.27;;;9.43;;
54269;SDS011;40181;51.560;13.000;2023-12-07T02:10:32;14.30;;;8.82;;
54269;SDS011;40181;51.560;13.000;2023-12-07T02:13:04;9.10;;;7.60;;
54269;SDS011;40181;51.560;13.000;2023-12-07T02:15:35;8.27;;;6.68;;
54269;SDS011;40181;51.560;13.000;2023-12-07T02:18:06;8.27;;;6.60;;
54269;SDS011;40181;51.560;13.000;2023-12-07T02:20:46;8.23;;;7.15;;
54269;SDS011;40181;51.560;13.000;2023-12-07T02:23:22;7.85;;;6.70;;
54269;SDS011;40181;51.560;13.000;2023-12-07T02:25:53;10.30;;;6.97;;
54269;SDS011;40181;51.560;13.000;2023-12-07T02:28:25;8.50;;;7.63;;
54269;SDS011;40181;51.560;13.000;2023-12-07T02:30:54;13.77;;;8.60;;
54269;SDS011;40181;51.560;13.000;2023-12-07T02:33:23;10.10;;;9.02;;
54269;SDS011;40181;51.560;13.000;2023-12-07T02:35:52;9.95;;;8.95;;
54269;SDS011;40181;51.560;13.000;2023-12-07T02:38:22;8.98;;;8.07;;
54269;SDS011;40181;51.560;13.000;2023-12-07T02:40:54;10.15;;;9.15;;
54269;SDS011;40181;51.560;13.000;2023-12-07T02:43:28;9.68;;;8.70;;
54269;SDS011;40181;51.560;13.000;2023-12-07T02:45:57;9.13;;;7.28;;
54269;SDS011;40181;51.560;13.000;2023-12-07T02:48:27;7.13;;;6.43;;
54269;SDS011;40181;51.560;13.000;2023-12-07T02:50:56;8.45;;;7.65;;
54269;SDS011;40181;51.560;13.000;2023-12-07T02:53:25;7.90;;;7.03;;
54269;SDS011;40181;51.560;13.000;2023-12-07T02:55:54;8.70;;;7.85;;
54269;SDS011;40181;51.560;13.000;2023-12-07T02:58:23;10.85;;;9.20;;
54269;SDS011;40181;51.560;13.000;2023-12-07T03:00:54;12.27;;;9.02;;
54269;SDS011;40181;51.560;13.000;2023-12-07T03:03:24;8.50;;;7.60;;
54269;SDS011;40181;51.560;13.000;2023-12-07T03:05:53;7.60;;;6.85;;
54269;SDS011;40181;51.560;13.000;2023-12-07T03:08:22;7.45;;;6.38;;
54269;SDS011;40181;51.560;13.000;2023-12-07T03:10:53;8.52;;;7.20;;
54269;SDS011;40181;51.560;13.000;2023-12-07T03:13:22;9.48;;;7.47;;
54269;SDS011;40181;51.560;13.000;2023-12-07T03:15:51;11.68;;;6.70;;
54269;SDS011;40181;51.560;13.000;2023-12-07T03:18:22;11.30;;;9.05;;
54269;SDS011;40181;51.560;13.000;2023-12-07T03:20:53;12.27;;;10.10;;
54269;SDS011;40181;51.560;13.000;2023-12-07T03:23:22;9.00;;;8.02;;
54269;SDS011;40181;51.560;13.000;2023-12-07T03:25:51;12.80;;;8.75;;
54269;SDS011;40181;51.560;13.000;2023-12-07T03:28:20;8.80;;;7.88;;
54269;SDS011;40181;51.560;13.000;2023-12-07T03:30:49;10.73;;;9.68;;
54269;SDS011;40181;51.560;13.000;2023-12-07T03:33:21;8.30;;;7.45;;
54269;SDS011;40181;51.560;13.000;2023-12-07T03:35:50;10.55;;;9.35;;
54269;SDS011;40181;51.560;13.000;2023-12-07T03:38:19;9.20;;;7.30;;
54269;SDS011;40181;51.560;13.000;2023-12-07T03:40:48;11.15;;;10.05;;
54269;SDS011;40181;51.560;13.000;2023-12-07T03:43:17;14.23;;;12.07;;
54269;SDS011;40181;51.560;13.000;2023-12-07T03:45:47;13.00;;;11.63;;
54269;SDS011;40181;51.560;13.000;2023-12-07T03:48:17;11.77;;;10.57;;
54269;SDS011;40181;51.560;13.000;2023-12-07T03:50:48;13.40;;;11.95;;
54269;SDS011;40181;51.560;13.000;2023-12-07T03:53:17;13.30;;;11.80;;
54269;SDS011;40181;51.560;13.000;2023-12-07T03:55:47;13.23;;;11.88;;
54269;SDS011;40181;51.560;13.000;2023-12-07T03:58:16;12.65;;;11.07;;
54269;SDS011;40181;51.560;13.000;2023-12-07T04:00:45;10.25;;;9.25;;
54269;SDS011;40181;51.560;13.000;2023-12-07T04:03:14;9.63;;;8.73;;
54269;SDS011;40181;51.560;13.000;2023-12-07T04:05:46;12.57;;;11.32;;
54269;SDS011;40181;51.560;13.000;2023-12-07T04:08:15;14.23;;;11.38;;
54269;SDS011;40181;51.560;13.000;2023-12-07T04:10:44;11.13;;;9.90;;
54269;SDS011;40181;51.560;13.000;2023-12-07T04:13:13;10.65;;;9.55;;
54269;SDS011;40181;51.560;13.000;2023-12-07T04:15:43;12.05;;;10.95;;
54269;SDS011;40181;51.560;13.000;2023-12-07T04:18:12;13.50;;;9.93;;
54269;SDS011;40181;51.560;13.000;2023-12-07T04:20:41;10.77;;;9.65;;
54269;SDS011;40181;51.560;13.000;2023-12-07T04:23:13;11.75;;;9.70;;
54269;SDS011;40181;51.560;13.000;2023-12-07T04:25:42;14.43;;;10.07;;
54269;SDS011;40181;51.560;13.000;2023-12-07T04:28:11;11.73;;;10.35;;
54269;SDS011;40181;51.560;13.000;2023-12-07T04:30:40;11.20;;;9.85;;
54269;SDS011;40181;51.560;13.000;2023-12-07T04:33:09;15.60;;;12.98;;
54269;SDS011;40181;51.560;13.000;2023-12-07T04:35:38;17.27;;;12.90;;
54269;SDS011;40181;51.560;13.000;2023-12-07T04:38:08;14.75;;;12.63;;
54269;SDS011;40181;51.560;13.000;2023-12-07T04:40:39;13.65;;;11.18;;
54269;SDS011;40181;51.560;13.000;2023-12-07T04:43:08;14.65;;;12.90;;
54269;SDS011;40181;51.560;13.000;2023-12-07T04:45:37;16.35;;;13.70;;
54269;SDS011;40181;51.560;13.000;2023-12-07T04:48:06;15.55;;;13.38;;
54269;SDS011;40181;51.560;13.000;2023-12-07T04:50:36;11.63;;;10.45;;
54269;SDS011;40181;51.560;13.000;2023-12-07T04:53:05;15.75;;;14.20;;
54269;SDS011;40181;51.560;13.000;2023-12-07T04:55:34;16.17;;;13.77;;
54269;SDS011;40181;51.560;13.000;2023-12-07T04:58:06;13.43;;;12.02;;
54269;SDS011;40181;51.560;13.000;2023-12-07T05:00:35;16.67;;;14.40;;
54269;SDS011;40181;51.560;13.000;2023-12-07T05:03:04;14.80;;;12.70;;
54269;SDS011;40181;51.560;13.000;2023-12-07T05:05:33;14.70;;;13.27;;
54269;SDS011;40181;51.560;13.000;2023-12-07T05:08:02;15.23;;;13.32;;
54269;SDS011;40181;51.560;13.000;2023-12-07T05:10:31;17.33;;;14.73;;
54269;SDS011;40181;51.560;13.000;2023-12-07T05:13:00;14.27;;;11.38;;
54269;SDS011;40181;51.560;13.000;2023-12-07T05:15:32;15.98;;;12.52;;
54269;SDS011;40181;51.560;13.000;2023-12-07T05:18:01;17.05;;;14.27;;
54269;SDS011;40181;51.560;13.000;2023-12-07T05:20:30;16.83;;;14.02;;
54269;SDS011;40181;51.560;13.000;2023-12-07T05:23:01;13.55;;;11.75;;
54269;SDS011;40181;51.560;13.000;2023-12-07T05:25:30;11.80;;;10.35;;
54269;SDS011;40181;51.560;13.000;2023-12-07T05:28:00;14.68;;;10.50;;
54269;SDS011;40181;51.560;13.000;2023-12-07T05:30:32;16.50;;;13.35;;
54269;SDS011;40181;51.560;13.000;2023-12-07T05:33:01;13.32;;;10.23;;
54269;SDS011;40181;51.560;13.000;2023-12-07T05:35:31;12.07;;;10.73;;
54269;SDS011;40181;51.560;13.000;2023-12-07T05:38:00;14.23;;;11.38;;
54269;SDS011;40181;51.560;13.000;2023-12-07T05:40:29;9.90;;;8.90;;
54269;SDS011;40181;51.560;13.000;2023-12-07T05:42:58;10.27;;;9.27;;
54269;SDS011;40181;51.560;13.000;2023-12-07T05:45:28;9.63;;;8.25;;
54269;SDS011;40181;51.560;13.000;2023-12-07T05:48:00;16.55;;;11.40;;
54269;SDS011;40181;51.560;13.000;2023-12-07T05:50:29;11.70;;;10.48;;
54269;SDS011;40181;51.560;13.000;2023-12-07T05:52:58;13.73;;;10.50;;
54269;SDS011;40181;51.560;13.000;2023-12-07T05:55:27;15.82;;;11.48;;
54269;SDS011;40181;51.560;13.000;2023-12-07T05:57:56;14.63;;;11.65;;
54269;SDS011;40181;51.560;13.000;2023-12-07T06:00:25;12.27;;;10.80;;
54269;SDS011;40181;51.560;13.000;2023-12-07T06:02:57;12.00;;;10.73;;
54269;SDS011;40181;51.560;13.000;2023-12-07T06:05:27;15.20;;;12.07;;
54269;SDS011;40181;51.560;13.000;2023-12-07T06:07:56;19.15;;;14.75;;
54269;SDS011;40181;51.560;13.000;2023-12-07T06:10:25;14.65;;;10.43;;
54269;SDS011;40181;51.560;13.000;2023-12-07T06:12:54;11.45;;;10.20;;
54269;SDS011;40181;51.560;13.000;2023-12-07T06:15:25;12.10;;;9.40;;
54269;SDS011;40181;51.560;13.000;2023-12-07T06:17:57;14.43;;;11.90;;
54269;SDS011;40181;51.560;13.000;2023-12-07T06:20:26;14.20;;;11.45;;
54269;SDS011;40181;51.560;13.000;2023-12-07T06:22:55;13.48;;;11.57;;
54269;SDS011;40181;51.560;13.000;2023-12-07T06:25:25;12.25;;;9.82;;
54269;SDS011;40181;51.560;13.000;2023-12-07T06:27:54;10.60;;;9.13;;
54269;SDS011;40181;51.560;13.000;2023-12-07T06:30:24;11.73;;;9.60;;
54269;SDS011;40181;51.560;13.000;2023-12-07T06:32:53;13.98;;;11.43;;
54269;SDS011;40181;51.560;13.000;2023-12-07T06:35:24;11.27;;;9.80;;
54269;SDS011;40181;51.560;13.000;2023-12-07T06:37:54;11.13;;;10.02;;
54269;SDS011;40181;51.560;13.000;2023-12-07T06:40:23;17.60;;;9.57;;
54269;SDS011;40181;51.560;13.000;2023-12-07T06:42:52;11.05;;;9.95;;
54269;SDS011;40181;51.560;13.000;2023-12-07T06:45:21;11.07;;;8.73;;
54269;SDS011;40181;51.560;13.000;2023-12-07T06:47:50;26.80;;;14.43;;
54269;SDS011;40181;51.560;13.000;2023-12-07T06:50:19;15.23;;;12.35;;
54269;SDS011;40181;51.560;13.000;2023-12-07T06:52:51;17.52;;;14.10;;
54269;SDS011;40181;51.560;13.000;2023-12-07T06:55:20;16.95;;;11.50;;
54269;SDS011;40181;51.560;13.000;2023-12-07T06:57:49;12.93;;;10.55;;
54269;SDS011;40181;51.560;13.000;2023-12-07T07:00:18;11.77;;;10.68;;
54269;SDS011;40181;51.560;13.000;2023-12-07T07:02:49;12.25;;;10.55;;
54269;SDS011;40181;51.560;13.000;2023-12-07T07:05:18;13.88;;;9.90;;
54269;SDS011;40181;51.560;13.000;2023-12-07T07:07:47;14.45;;;12.05;;
54269;SDS011;40181;51.560;13.000;2023-12-07T07:10:20;10.82;;;9.32;;
54269;SDS011;40181;51.560;13.000;2023-12-07T07:12:49;9.65;;;8.20;;
54269;SDS011;40181;51.560;13.000;2023-12-07T07:15:18;11.05;;;9.85;;
54269;SDS011;40181;51.560;13.000;2023-12-07T07:17:50;12.13;;;10.50;;
54269;SDS011;40181;51.560;13.000;2023-12-07T07:20:19;13.48;;;11.23;;
54269;SDS011;40181;51.560;13.000;2023-12-07T07:22:51;11.52;;;9.82;;
54269;SDS011;40181;51.560;13.000;2023-12-07T07:25:20;12.57;;;8.85;;
54269;SDS011;40181;51.560;13.000;2023-12-07T07:27:49;10.00;;;8.68;;
54269;SDS011;40181;51.560;13.000;2023-12-07T07:30:19;14.93;;;13.25;;
54269;SDS011;40181;51.560;13.000;2023-12-07T07:32:49;13.40;;;11.60;;
54269;SDS011;40181;51.560;13.000;2023-12-07T07:35:18;13.35;;;9.93;;
54269;SDS011;40181;51.560;13.000;2023-12-07T07:37:47;15.30;;;12.25;;
54269;SDS011;40181;51.560;13.000;2023-12-07T07:40:19;12.32;;;10.13;;
54269;SDS011;40181;51.560;13.000;2023-12-07T07:42:49;11.05;;;8.38;;
54269;SDS011;40181;51.560;13.000;2023-12-07T07:45:18;15.40;;;9.63;;
54269;SDS011;40181;51.560;13.000;2023-12-07T07:47:48;10.93;;;9.27;;
54269;SDS011;40181;51.560;13.000;2023-12-07T07:50:17;11.50;;;10.20;;
54269;SDS011;40181;51.560;13.000;2023-12-07T07:52:46;13.88;;;12.30;;
54269;SDS011;40181;51.560;13.000;2023-12-07T07:55:18;11.35;;;9.68;;
54269;SDS011;40181;51.560;13.000;2023-12-07T07:57:47;13.77;;;9.32;;
54269;SDS011;40181;51.560;13.000;2023-12-07T08:00:16;13.95;;;11.05;;
54269;SDS011;40181;51.560;13.000;2023-12-07T08:02:46;11.10;;;10.00;;
54269;SDS011;40181;51.560;13.000;2023-12-07T08:05:15;9.88;;;8.88;;
54269;SDS011;40181;51.560;13.000;2023-12-07T08:07:44;10.52;;;8.15;;
54269;SDS011;40181;51.560;13.000;2023-12-07T08:10:14;12.20;;;9.33;;
54269;SDS011;40181;51.560;13.000;2023-12-07T08:12:46;9.13;;;8.30;;
54269;SDS011;40181;51.560;13.000;2023-12-07T08:15:15;11.75;;;10.48;;
54269;SDS011;40181;51.560;13.000;2023-12-07T08:17:46;12.63;;;8.88;;
54269;SDS011;40181;51.560;13.000;2023-12-07T08:20:16;11.07;;;9.93;;
54269;SDS011;40181;51.560;13.000;2023-12-07T08:22:45;11.43;;;10.00;;
54269;SDS011;40181;51.560;13.000;2023-12-07T08:25:17;9.52;;;8.52;;
54269;SDS011;40181;51.560;13.000;2023-12-07T08:27:47;9.68;;;7.88;;
54269;SDS011;40181;51.560;13.000;2023-12-07T08:30:16;11.45;;;9.00;;
54269;SDS011;40181;51.560;13.000;2023-12-07T08:32:45;9.05;;;8.15;;
54269;SDS011;40181;51.560;13.000;2023-12-07T08:35:14;11.57;;;9.10;;
54269;SDS011;40181;51.560;13.000;2023-12-07T08:37:46;18.40;;;8.93;;
54269;SDS011;40181;51.560;13.000;2023-12-07T08:40:18;13.05;;;10.25;;
54269;SDS011;40181;51.560;13.000;2023-12-07T08:42:47;11.25;;;10.00;;
54269;SDS011;40181;51.560;13.000;2023-12-07T08:45:16;9.38;;;8.45;;
54269;SDS011;40181;51.560;13.000;2023-12-07T08:47:45;9.63;;;8.68;;
54269;SDS011;40181;51.560;13.000;2023-12-07T08:50:14;13.68;;;9.98;;
54269;SDS011;40181;51.560;13.000;2023-12-07T08:52:43;13.13;;;10.82;;
54269;SDS011;40181;51.560;13.000;2023-12-07T08:55:12;12.85;;;11.45;;
54269;SDS011;40181;51.560;13.000;2023-12-07T08:57:46;14.60;;;12.48;;
54269;SDS011;40181;51.560;13.000;2023-12-07T09:00:16;11.23;;;10.02;;
54269;SDS011;40181;51.560;13.000;2023-12-07T09:02:49;13.15;;;11.80;;
54269;SDS011;40181;51.560;13.000;2023-12-07T09:05:18;11.90;;;10.50;;
54269;SDS011;40181;51.560;13.000;2023-12-07T09:07:47;23.05;;;15.10;;
54269;SDS011;40181;51.560;13.000;2023-12-07T09:10:17;13.55;;;11.82;;
54269;SDS011;40181;51.560;13.000;2023-12-07T09:12:49;12.07;;;10.88;;
54269;SDS011;40181;51.560;13.000;2023-12-07T09:15:18;14.82;;;12.77;;
54269;SDS011;40181;51.560;13.000;2023-12-07T09:17:48;15.98;;;12.27;;
54269;SDS011;40181;51.560;13.000;2023-12-07T09:20:17;13.88;;;10.60;;
54269;SDS011;40181;51.560;13.000;2023-12-07T09:22:46;11.70;;;10.52;;
54269;SDS011;40181;51.560;13.000;2023-12-07T09:25:16;13.35;;;10.93;;
54269;SDS011;40181;51.560;13.000;2023-12-07T09:27:46;12.00;;;10.80;;
54269;SDS011;40181;51.560;13.000;2023-12-07T09:30:17;19.08;;;13.43;;
54269;SDS011;40181;51.560;13.000;2023-12-07T09:32:46;18.13;;;14.68;;
54269;SDS011;40181;51.560;13.000;2023-12-07T09:35:15;13.77;;;10.73;;
54269;SDS011;40181;51.560;13.000;2023-12-07T09:37:47;12.77;;;9.95;;
54269;SDS011;40181;51.560;13.000;2023-12-07T09:40:17;15.85;;;12.63;;
54269;SDS011;40181;51.560;13.000;2023-12-07T09:42:50;13.35;;;11.93;;
54269;SDS011;40181;51.560;13.000;2023-12-07T09:45:20;12.02;;;10.80;;
54269;SDS011;40181;51.560;13.000;2023-12-07T09:47:50;12.70;;;10.32;;
54269;SDS011;40181;51.560;13.000;2023-12-07T09:52:51;13.50;;;10.00;;
54269;SDS011;40181;51.560;13.000;2023-12-07T09:55:22;10.95;;;9.75;;
54269;SDS011;40181;51.560;13.000;2023-12-07T10:00:24;10.55;;;9.15;;
54269;SDS011;40181;51.560;13.000;2023-12-07T10:02:53;12.97;;;8.37;;
54269;SDS011;40181;51.560;13.000;2023-12-07T10:05:22;12.88;;;7.63;;
54269;SDS011;40181;51.560;13.000;2023-12-07T10:07:51;8.40;;;7.18;;
54269;SDS011;40181;51.560;13.000;2023-12-07T10:10:20;9.05;;;7.32;;
54269;SDS011;40181;51.560;13.000;2023-12-07T10:12:51;13.65;;;10.68;;
54269;SDS011;40181;51.560;13.000;2023-12-07T10:15:24;11.07;;;9.95;;
54269;SDS011;40181;51.560;13.000;2023-12-07T10:17:56;10.38;;;8.80;;
54269;SDS011;40181;51.560;13.000;2023-12-07T10:20:27;8.23;;;6.93;;
54269;SDS011;40181;51.560;13.000;2023-12-07T10:25:30;9.43;;;6.15;;
54269;SDS011;40181;51.560;13.000;2023-12-07T10:28:04;9.00;;;7.45;;
54269;SDS011;40181;51.560;13.000;2023-12-07T10:30:36;9.55;;;8.55;;
54269;SDS011;40181;51.560;13.000;2023-12-07T10:33:06;9.88;;;8.88;;
54269;SDS011;40181;51.560;13.000;2023-12-07T10:35:38;8.02;;;7.22;;
54269;SDS011;40181;51.560;13.000;2023-12-07T10:38:07;16.65;;;14.95;;
54269;SDS011;40181;51.560;13.000;2023-12-07T10:40:37;10.23;;;9.23;;
54269;SDS011;40181;51.560;13.000;2023-12-07T10:43:10;8.60;;;7.50;;
54269;SDS011;40181;51.560;13.000;2023-12-07T10:45:41;8.55;;;7.63;;
54269;SDS011;40181;51.560;13.000;2023-12-07T10:48:11;8.77;;;7.88;;
54269;SDS011;40181;51.560;13.000;2023-12-07T10:50:41;11.60;;;7.93;;
54269;SDS011;40181;51.560;13.000;2023-12-07T10:53:15;8.45;;;7.55;;
54269;SDS011;40181;51.560;13.000;2023-12-07T10:55:55;9.05;;;8.18;;
54269;SDS011;40181;51.560;13.000;2023-12-07T10:58:32;9.55;;;8.23;;
54269;SDS011;40181;51.560;13.000;2023-12-07T11:01:04;9.85;;;8.85;;
54269;SDS011;40181;51.560;13.000;2023-12-07T11:03:37;11.15;;;9.98;;
54269;SDS011;40181;51.560;13.000;2023-12-07T11:06:08;10.93;;;8.55;;
54269;SDS011;40181;51.560;13.000;2023-12-07T11:08:38;10.02;;;8.27;;
54269;SDS011;40181;51.560;13.000;2023-12-07T11:11:15;11.35;;;10.15;;
54269;SDS011;40181;51.560;13.000;2023-12-07T11:13:56;10.93;;;8.52;;
54269;SDS011;40181;51.560;13.000;2023-12-07T11:16:30;11.93;;;8.65;;
54269;SDS011;40181;51.560;13.000;2023-12-07T11:19:00;12.25;;;9.55;;
54269;SDS011;40181;51.560;13.000;2023-12-07T11:21:30;12.82;;;9.32;;
54269;SDS011;40181;51.560;13.000;2023-12-07T11:24:00;11.18;;;9.35;;
54269;SDS011;40181;51.560;13.000;2023-12-07T11:26:30;12.07;;;10.90;;
54269;SDS011;40181;51.560;13.000;2023-12-07T11:29:01;12.30;;;11.00;;
54269;SDS011;40181;51.560;13.000;2023-12-07T11:31:32;18.92;;;15.50;;
54269;SDS011;40181;51.560;13.000;2023-12-07T11:34:05;15.40;;;11.10;;
54269;SDS011;40181;51.560;13.000;2023-12-07T11:36:38;11.60;;;9.45;;
54269;SDS011;40181;51.560;13.000;2023-12-07T11:39:16;11.73;;;9.90;;
54269;SDS011;40181;51.560;13.000;2023-12-07T11:41:51;12.48;;;9.38;;
54269;SDS011;40181;51.560;13.000;2023-12-07T11:44:36;11.55;;;10.35;;
54269;SDS011;40181;51.560;13.000;2023-12-07T11:47:09;11.70;;;9.05;;
54269;SDS011;40181;51.560;13.000;2023-12-07T11:49:41;10.60;;;9.30;;
54269;SDS011;40181;51.560;13.000;2023-12-07T11:52:14;11.18;;;9.93;;
54269;SDS011;40181;51.560;13.000;2023-12-07T11:54:44;15.82;;;13.60;;
54269;SDS011;40181;51.560;13.000;2023-12-07T11:59:53;10.98;;;9.73;;
54269;SDS011;40181;51.560;13.000;2023-12-07T12:02:35;12.30;;;10.95;;
54269;SDS011;40181;51.560;13.000;2023-12-07T12:05:07;12.75;;;10.27;;
54269;SDS011;40181;51.560;13.000;2023-12-07T12:07:42;9.60;;;8.60;;
54269;SDS011;40181;51.560;13.000;2023-12-07T12:10:11;14.10;;;12.02;;
54269;SDS011;40181;51.560;13.000;2023-12-07T12:12:40;14.63;;;11.55;;
54269;SDS011;40181;51.560;13.000;2023-12-07T12:15:12;12.82;;;11.48;;
54269;SDS011;40181;51.560;13.000;2023-12-07T12:17:41;12.13;;;9.68;;
54269;SDS011;40181;51.560;13.000;2023-12-07T12:20:10;10.48;;;9.27;;
54269;SDS011;40181;51.560;13.000;2023-12-07T12:22:42;13.48;;;9.40;;
54269;SDS011;40181;51.560;13.000;2023-12-07T12:25:11;11.70;;;10.05;;
54269;SDS011;40181;51.560;13.000;2023-12-07T12:27:40;9.48;;;8.57;;
54269;SDS011;40181;51.560;13.000;2023-12-07T12:30:12;11.38;;;9.68;;
54269;SDS011;40181;51.560;13.000;2023-12-07T12:32:42;8.68;;;7.82;;
54269;SDS011;40181;51.560;13.000;2023-12-07T12:35:12;12.90;;;8.87;;
54269;SDS011;40181;51.560;13.000;2023-12-07T12:37:42;7.50;;;6.80;;
54269;SDS011;40181;51.560;13.000;2023-12-07T12:40:12;8.32;;;6.97;;
54269;SDS011;40181;51.560;13.000;2023-12-07T12:42:45;12.45;;;10.45;;
54269;SDS011;40181;51.560;13.000;2023-12-07T12:45:18;11.95;;;10.55;;
54269;SDS011;40181;51.560;13.000;2023-12-07T12:47:48;13.65;;;10.60;;
54269;SDS011;40181;51.560;13.000;2023-12-07T12:53:03;10.27;;;9.27;;
54269;SDS011;40181;51.560;13.000;2023-12-07T12:55:33;13.85;;;10.27;;
54269;SDS011;40181;51.560;13.000;2023-12-07T12:58:05;14.50;;;9.27;;
54269;SDS011;40181;51.560;13.000;2023-12-07T13:00:40;9.13;;;8.23;;
54269;SDS011;40181;51.560;13.000;2023-12-07T13:03:09;10.30;;;9.05;;
54269;SDS011;40181;51.560;13.000;2023-12-07T13:05:39;10.00;;;7.43;;
54269;SDS011;40181;51.560;13.000;2023-12-07T13:08:08;12.32;;;8.52;;
54269;SDS011;40181;51.560;13.000;2023-12-07T13:10:37;9.93;;;8.18;;
54269;SDS011;40181;51.560;13.000;2023-12-07T13:13:06;10.13;;;9.10;;
54269;SDS011;40181;51.560;13.000;2023-12-07T13:15:35;12.35;;;11.13;;
54269;SDS011;40181;51.560;13.000;2023-12-07T13:18:07;11.95;;;10.48;;
54269;SDS011;40181;51.560;13.000;2023-12-07T13:20:36;13.43;;;10.95;;
54269;SDS011;40181;51.560;13.000;2023-12-07T13:23:05;14.55;;;12.57;;
54269;SDS011;40181;51.560;13.000;2023-12-07T13:25:34;11.23;;;9.98;;
54269;SDS011;40181;51.560;13.000;2023-12-07T13:28:03;10.98;;;9.80;;
54269;SDS011;40181;51.560;13.000;2023-12-07T13:30:33;14.68;;;10.27;;
54269;SDS011;40181;51.560;13.000;2023-12-07T13:33:06;9.73;;;8.73;;
54269;SDS011;40181;51.560;13.000;2023-12-07T13:35:35;10.90;;;9.15;;
54269;SDS011;40181;51.560;13.000;2023-12-07T13:38:05;9.27;;;8.07;;
54269;SDS011;40181;51.560;13.000;2023-12-07T13:40:34;8.88;;;7.70;;
54269;SDS011;40181;51.560;13.000;2023-12-07T13:43:03;10.48;;;9.40;;
54269;SDS011;40181;51.560;13.000;2023-12-07T13:48:03;13.05;;;10.38;;
54269;SDS011;40181;51.560;13.000;2023-12-07T13:50:35;12.55;;;9.70;;
54269;SDS011;40181;51.560;13.000;2023-12-07T13:53:04;15.10;;;12.20;;
54269;SDS011;40181;51.560;13.000;2023-12-07T13:55:35;12.20;;;10.57;;
54269;SDS011;40181;51.560;13.000;2023-12-07T13:58:04;11.50;;;10.07;;
54269;SDS011;40181;51.560;13.000;2023-12-07T14:00:34;11.68;;;10.32;;
54269;SDS011;40181;51.560;13.000;2023-12-07T14:03:12;14.38;;;9.65;;
54269;SDS011;40181;51.560;13.000;2023-12-07T14:05:49;9.98;;;8.57;;
54269;SDS011;40181;51.560;13.000;2023-12-07T14:08:18;12.25;;;8.40;;
54269;SDS011;40181;51.560;13.000;2023-12-07T14:10:47;11.55;;;10.35;;
54269;SDS011;40181;51.560;13.000;2023-12-07T14:13:16;18.45;;;12.27;;
54269;SDS011;40181;51.560;13.000;2023-12-07T14:15:48;13.40;;;10.35;;
54269;SDS011;40181;51.560;13.000;2023-12-07T14:18:19;10.43;;;9.00;;
54269;SDS011;40181;51.560;13.000;2023-12-07T14:20:49;10.18;;;8.52;;
54269;SDS011;40181;51.560;13.000;2023-12-07T14:23:18;12.07;;;7.80;;
54269;SDS011;40181;51.560;13.000;2023-12-07T14:25:48;10.32;;;7.97;;
54269;SDS011;40181;51.560;13.000;2023-12-07T14:28:17;13.20;;;9.68;;
54269;SDS011;40181;51.560;13.000;2023-12-07T14:30:46;10.18;;;9.10;;
54269;SDS011;40181;51.560;13.000;2023-12-07T14:33:15;10.45;;;9.35;;
54269;SDS011;40181;51.560;13.000;2023-12-07T14:35:47;11.63;;;8.55;;
54269;SDS011;40181;51.560;13.000;2023-12-07T14:38:16;10.93;;;9.05;;
54269;SDS011;40181;51.560;13.000;2023-12-07T14:40:45;9.90;;;8.32;;
54269;SDS011;40181;51.560;13.000;2023-12-07T14:43:14;9.13;;;8.20;;
54269;SDS011;40181;51.560;13.000;2023-12-07T14:45:43;11.45;;;9.23;;
54269;SDS011;40181;51.560;13.000;2023-12-07T14:48:12;10.02;;;8.88;;
54269;SDS011;40181;51.560;13.000;2023-12-07T14:50:42;12.82;;;10.52;;
54269;SDS011;40181;51.560;13.000;2023-12-07T14:53:14;10.70;;;9.60;;
54269;SDS011;40181;51.560;13.000;2023-12-07T14:55:44;10.38;;;7.90;;
54269;SDS011;40181;51.560;13.000;2023-12-07T14:58:15;14.27;;;11.05;;